Time;durP1;ratioP1;P1;durP2;ratioP2;P2;SDS_P1;SDS_P2;PMS_P1;PMS_P2;Temp;Humidity;BMP_temperature;BMP_pressure;BME280_temperature;BME280_humidity;BME280_pressure;Samples;Min_cycle;Max_cycle;Signal;HPM_P1;HPM_P2
2023/01/20 00:03:25;;;;;;;12.68;11.68;;;;;;;0.72;89.68;99237.38;10423037;28;20080;-72
2023/01/20 00:08:27;;;;;;;14.30;13.10;;;;;;;0.74;90.34;99237.34;10422345;28;20069;-72
2023/01/20 00:13:28;;;;;;;13.43;12.43;;;;;;;0.92;90.07;99241.56;10425377;28;20037;-72
2023/01/20 00:18:31;;;;;;;13.32;12.38;;;;;;;0.98;89.87;99241.56;10422178;28;20033;-72
2023/01/20 00:23:32;;;;;;;14.55;13.25;;;;;;;0.77;91.78;99239.06;10422373;28;20499;-72
2023/01/20 00:28:34;;;;;;;14.82;13.60;;;;;;;0.85;91.18;99245.94;10421691;28;20049;-72
2023/01/20 00:33:36;;;;;;;15.55;14.18;;;;;;;0.74;92.74;99256.31;10422688;28;20520;-72
2023/01/20 00:38:38;;;;;;;16.40;15.10;;;;;;;0.77;93.27;99263.22;10421437;28;20045;-72
2023/01/20 00:43:40;;;;;;;16.23;14.93;;;;;;;0.86;93.43;99264.91;10420976;28;20041;-72
2023/01/20 00:48:42;;;;;;;15.80;14.63;;;;;;;0.78;93.06;99270.09;10422307;28;20042;-72
2023/01/20 00:53:43;;;;;;;17.63;16.17;;;;;;;0.73;94.35;99275.28;10423330;28;20494;-72
2023/01/20 00:58:45;;;;;;;17.77;15.98;;;;;;;0.68;94.25;99284.81;10419467;28;20045;-72
2023/01/20 01:03:47;;;;;;;18.00;16.40;;;;;;;0.83;94.77;99294.22;10419657;28;20064;-72
2023/01/20 01:08:49;;;;;;;18.83;17.00;;;;;;;0.67;95.35;99301.19;10419978;28;20049;-72
2023/01/20 01:13:50;;;;;;;18.42;16.90;;;;;;;0.67;95.71;99318.44;10420497;28;20037;-72
2023/01/20 01:18:55;;;;;;;18.60;17.02;;;;;;;0.56;96.33;99322.78;10422924;28;20050;-72
2023/01/20 01:23:57;;;;;;;19.65;18.05;;;;;;;0.48;98.17;99327.97;10420992;28;20049;-72
2023/01/20 01:28:58;;;;;;;20.70;17.90;;;;;;;0.80;96.07;99332.16;10419329;28;20045;-72
2023/01/20 01:34:00;;;;;;;19.50;17.63;;;;;;;0.71;96.08;99346.03;10419427;28;20149;-71
2023/01/20 01:39:02;;;;;;;21.13;18.88;;;;;;;0.69;96.24;99346.00;10421173;28;20045;-72
2023/01/20 01:44:06;;;;;;;19.83;18.23;;;;;;;0.72;97.71;99347.75;10418753;28;20084;-72
2023/01/20 01:49:12;;;;;;;20.73;18.95;;;;;;;0.72;96.80;99355.50;10418882;28;20051;-72
2023/01/20 01:54:17;;;;;;;19.63;17.80;;;;;;;0.79;97.73;99354.59;10420365;28;20045;-72
2023/01/20 01:59:20;;;;;;;19.38;17.90;;;;;;;1.03;96.87;99352.81;10420403;28;20130;-73
2023/01/20 02:04:25;;;;;;;23.10;18.73;;;;;;;0.66;98.75;99355.50;10416307;28;20065;-72
2023/01/20 02:09:27;;;;;;;21.60;19.80;;;;;;;0.65;100.00;99358.97;10417655;28;20045;-71
2023/01/20 02:14:48;;;;;;;21.17;19.33;;;;;;;0.52;100.00;99357.25;10418451;28;20044;-72
2023/01/20 02:20:27;;;;;;;22.67;20.27;;;;;;;0.31;100.00;99361.63;10418687;28;20042;-72
2023/01/20 02:26:26;;;;;;;29.33;22.15;;;;;;;0.16;100.00;99359.91;10418167;28;20087;-72
2023/01/20 02:32:03;;;;;;;25.17;22.63;;;;;;;0.10;100.00;99370.25;10331978;28;20046;-72
2023/01/20 02:37:45;;;;;;;22.13;19.95;;;;;;;0.13;100.00;99374.53;10172667;29;20056;-72
2023/01/20 02:42:57;;;;;;;27.98;21.30;;;;;;;0.21;100.00;99384.00;10096225;29;20057;-72
2023/01/20 02:48:23;;;;;;;22.95;20.58;;;;;;;0.30;100.00;99390.91;10095237;29;20053;-72
2023/01/20 02:53:31;;;;;;;20.73;19.07;;;;;;;0.21;100.00;99388.31;10095808;29;20065;-72
2023/01/20 02:58:59;;;;;;;24.00;21.70;;;;;;;0.16;100.00;99395.22;10095988;29;20139;-72
2023/01/20 03:04:02;;;;;;;23.05;20.60;;;;;;;0.26;100.00;99404.69;10174996;29;20391;-72
2023/01/20 03:09:14;;;;;;;22.42;19.55;;;;;;;0.54;100.00;99402.97;10175852;29;20060;-72
2023/01/20 03:14:16;;;;;;;21.38;19.58;;;;;;;0.52;100.00;99415.00;10251572;29;20123;-72
2023/01/20 03:19:19;;;;;;;19.50;17.52;;;;;;;0.37;100.00;99418.47;10413487;28;20062;-72
2023/01/20 03:24:22;;;;;;;20.35;18.83;;;;;;;0.31;100.00;99417.59;10416040;28;20037;-72
2023/01/20 03:29:24;;;;;;;19.73;18.02;;;;;;;0.18;100.00;99425.38;10424925;28;20168;-72
2023/01/20 03:34:29;;;;;;;24.38;21.85;;;;;;;0.11;100.00;99433.13;10423409;28;20044;-72
2023/01/20 03:39:45;;;;;;;23.58;21.33;;;;;;;0.16;100.00;99436.56;10391636;28;20061;-72
2023/01/20 03:44:56;;;;;;;25.23;22.65;;;;;;;0.18;100.00;99440.91;10423723;28;20037;-73
2023/01/20 03:50:09;;;;;;;24.55;22.30;;;;;;;0.09;100.00;99438.31;10426500;28;20116;-72
2023/01/20 03:55:14;;;;;;;25.05;22.55;;;;;;;0.19;100.00;99445.19;10423779;28;20046;-71
2023/01/20 04:00:19;;;;;;;28.45;24.92;;;;;;;0.08;100.00;99451.19;10423154;28;20052;-71
2023/01/20 04:05:21;;;;;;;32.28;25.02;;;;;;;0.01;100.00;99447.78;10423310;28;20042;-72
2023/01/20 04:10:26;;;;;;;25.38;22.45;;;;;;;-0.05;100.00;99456.34;10423966;28;20453;-72
2023/01/20 04:15:33;;;;;;;32.78;22.90;;;;;;;-0.04;100.00;99468.44;10422660;28;20041;-73
2023/01/20 04:20:35;;;;;;;24.58;22.30;;;;;;;-0.03;100.00;99466.69;10424088;28;20073;-73
2023/01/20 04:25:37;;;;;;;25.55;23.10;;;;;;;-0.08;100.00;99474.44;10422599;28;20034;-72
2023/01/20 04:30:38;;;;;;;24.77;22.48;;;;;;;0.03;100.00;99473.59;10423135;28;20049;-73
2023/01/20 04:35:41;;;;;;;24.70;22.45;;;;;;;-0.13;100.00;99486.50;10437881;23;20034;-74
2023/01/20 04:40:43;;;;;;;38.50;24.50;;;;;;;-0.18;100.00;99488.19;10381164;28;20410;-74
2023/01/20 04:45:45;;;;;;;31.55;24.20;;;;;;;-0.12;100.00;99495.09;10419928;28;20462;-74
2023/01/20 04:50:46;;;;;;;27.80;23.77;;;;;;;-0.04;100.00;99493.41;10401787;28;20057;-75
2023/01/20 04:55:48;;;;;;;25.83;23.17;;;;;;;0.11;100.00;99503.75;10419436;28;20033;-75
2023/01/20 05:00:50;;;;;;;28.00;23.33;;;;;;;-0.05;100.00;99505.44;10418754;28;20080;-74
2023/01/20 05:05:53;;;;;;;25.17;22.50;;;;;;;-0.09;100.00;99514.06;10419035;28;20041;-75
2023/01/20 05:10:55;;;;;;;50.78;27.67;;;;;;;0.15;100.00;99521.00;10419095;28;20049;-74
2023/01/20 05:15:57;;;;;;;53.22;26.05;;;;;;;0.16;100.00;99527.03;10419178;28;20046;-74
2023/01/20 05:20:59;;;;;;;38.65;25.75;;;;;;;0.15;100.00;99538.22;10418415;28;20042;-74
2023/01/20 05:26:01;;;;;;;38.60;24.25;;;;;;;0.18;100.00;99544.28;10417491;28;20042;-74
2023/01/20 05:31:02;;;;;;;36.40;23.85;;;;;;;0.07;100.00;99542.50;10399655;28;20137;-73
2023/01/20 05:36:06;;;;;;;31.70;24.45;;;;;;;0.24;100.00;99546.00;10399732;28;20038;-73
2023/01/20 05:41:09;;;;;;;41.83;25.67;;;;;;;0.34;100.00;99552.91;10417510;28;20049;-74
2023/01/20 05:46:11;;;;;;;36.80;24.85;;;;;;;0.35;100.00;99559.78;10416720;28;20057;-74
2023/01/20 05:51:12;;;;;;;41.30;26.40;;;;;;;0.07;100.00;99558.88;10417036;28;20402;-74
2023/01/20 05:56:14;;;;;;;47.35;29.23;;;;;;;-0.04;100.00;99566.59;10416914;28;20052;-74
2023/01/20 06:01:16;;;;;;;43.20;26.88;;;;;;;-0.07;100.00;99579.50;10417206;28;20081;-74
2023/01/20 06:06:18;;;;;;;43.33;27.83;;;;;;;-0.04;100.00;99586.41;10399037;28;20104;-74
2023/01/20 06:11:20;;;;;;;41.25;26.13;;;;;;;-0.04;100.00;99582.13;10415898;28;20487;-73
2023/01/20 06:16:22;;;;;;;40.88;25.85;;;;;;;-0.03;100.00;99589.00;10398387;28;20037;-74
2023/01/20 06:21:24;;;;;;;46.38;26.38;;;;;;;-0.07;100.00;99594.16;10397890;28;20051;-74
2023/01/20 06:26:26;;;;;;;52.05;27.38;;;;;;;-0.13;100.00;99597.59;10397421;28;20049;-75
2023/01/20 06:31:27;;;;;;;43.55;28.23;;;;;;;-0.15;100.00;99599.28;10398996;28;20045;-75
2023/01/20 06:36:29;;;;;;;37.58;27.45;;;;;;;-0.14;100.00;99605.31;10415288;28;20104;-74
2023/01/20 06:41:31;;;;;;;56.28;28.92;;;;;;;-0.16;100.00;99613.06;10415745;28;20053;-74
2023/01/20 06:46:32;;;;;;;54.72;28.75;;;;;;;-0.13;100.00;99617.38;10415931;28;20041;-74
2023/01/20 06:51:34;;;;;;;56.28;32.88;;;;;;;0.13;100.00;99623.50;10414652;28;20049;-75
2023/01/20 06:56:36;;;;;;;41.05;26.55;;;;;;;0.40;100.00;99635.69;10396411;28;20055;-74
2023/01/20 07:01:39;;;;;;;39.53;25.90;;;;;;;0.25;100.00;99620.97;10420611;28;20052;-74
2023/01/20 07:06:41;;;;;;;54.25;28.52;;;;;;;0.08;100.00;99632.97;10411817;28;20522;-74
2023/01/20 07:11:43;;;;;;;52.85;27.17;;;;;;;0.07;100.00;99648.47;10410891;28;20068;-74
2023/01/20 07:16:45;;;;;;;56.25;30.85;;;;;;;0.07;100.00;99648.47;10428464;28;20042;-74
2023/01/20 07:21:47;;;;;;;61.08;33.92;;;;;;;0.11;100.00;99668.31;10434958;28;20045;-73
2023/01/20 07:26:51;;;;;;;53.47;27.52;;;;;;;0.12;100.00;99678.63;10418464;28;20049;-73
2023/01/20 07:31:53;;;;;;;40.65;27.02;;;;;;;0.04;100.00;99688.06;10435958;28;20049;-72
2023/01/20 07:36:55;;;;;;;43.33;27.40;;;;;;;0.08;100.00;99696.72;10420617;28;20045;-72
2023/01/20 07:41:56;;;;;;;40.80;25.33;;;;;;;0.18;100.00;99701.94;10438200;28;20057;-72
2023/01/20 07:46:58;;;;;;;32.72;23.40;;;;;;;0.40;100.00;99721.00;10436072;28;20494;-73
2023/01/20 07:52:00;;;;;;;39.78;24.65;;;;;;;0.26;100.00;99720.06;10436694;28;20045;-72
2023/01/20 07:57:02;;;;;;;33.10;23.40;;;;;;;0.18;100.00;99720.03;10417895;28;20064;-73
2023/01/20 08:02:04;;;;;;;30.38;23.23;;;;;;;0.11;100.00;99726.03;10417504;28;20407;-72
2023/01/20 08:07:06;;;;;;;41.15;24.38;;;;;;;0.12;100.00;99737.22;10418545;28;20064;-73
2023/01/20 08:12:07;;;;;;;39.08;23.15;;;;;;;0.12;100.00;99742.38;10430907;28;20068;-73
2023/01/20 08:17:09;;;;;;;36.08;25.20;;;;;;;0.19;100.00;99749.34;10424495;28;20384;-72
2023/01/20 08:22:11;;;;;;;40.65;24.63;;;;;;;0.19;100.00;99749.34;10422823;28;20038;-72
2023/01/20 08:27:13;;;;;;;29.35;22.42;;;;;;;0.21;100.00;99756.22;10422158;28;20057;-73
2023/01/20 08:32:14;;;;;;;33.40;23.52;;;;;;;0.16;100.00;99769.97;10422424;28;20044;-73
2023/01/20 08:37:16;;;;;;;37.88;24.63;;;;;;;0.15;100.00;99773.44;10388561;28;20494;-72
2023/01/20 08:42:18;;;;;;;33.67;25.27;;;;;;;0.19;100.00;99780.34;10404198;28;20045;-72
2023/01/20 08:47:19;;;;;;;152.82;70.05;;;;;;;0.80;100.00;99790.09;10422231;28;20387;-72
2023/01/20 08:52:21;;;;;;;87.47;42.85;;;;;;;0.58;100.00;99797.81;10422029;28;20136;-73
2023/01/20 08:57:27;;;;;;;41.20;26.98;;;;;;;0.40;100.00;99800.25;10404075;28;20045;-73
2023/01/20 09:02:28;;;;;;;65.28;34.97;;;;;;;0.54;100.00;99805.53;10421601;28;20042;-73
2023/01/20 09:07:30;;;;;;;27.98;22.80;;;;;;;0.42;100.00;99803.75;10420915;28;20160;-72
2023/01/20 09:12:32;;;;;;;50.60;26.60;;;;;;;0.63;100.00;99803.00;10421519;28;20041;-72
2023/01/20 09:17:34;;;;;;;35.67;23.52;;;;;;;0.53;100.00;99814.13;10420568;28;20060;-73
2023/01/20 09:22:38;;;;;;;37.83;24.35;;;;;;;0.45;100.00;99819.28;10419911;28;20419;-72
2023/01/20 09:27:39;;;;;;;45.22;27.17;;;;;;;0.36;100.00;99820.09;10401827;28;20136;-74
2023/01/20 09:32:41;;;;;;;38.00;24.73;;;;;;;0.46;100.00;99821.88;10420081;28;20045;-73
2023/01/20 09:54:24;;;;;;;39.80;24.95;;;;;;;0.73;100.00;99830.63;10377477;28;20042;-73
2023/01/20 09:59:34;;;;;;;37.33;25.10;;;;;;;0.58;100.00;99830.56;10376792;28;20065;-73
2023/01/20 10:04:42;;;;;;;45.70;26.30;;;;;;;0.56;100.00;99833.13;10377198;28;20045;-73
2023/01/20 10:09:56;;;;;;;34.55;25.13;;;;;;;0.56;100.00;99843.47;10359666;28;20046;-73
2023/01/20 10:15:24;;;;;;;27.08;23.60;;;;;;;0.57;100.00;99839.16;10377054;28;20045;-73
2023/01/20 10:20:35;;;;;;;38.33;24.60;;;;;;;0.75;100.00;99849.59;10378844;28;20403;-73
2023/01/20 10:25:48;;;;;;;36.90;24.92;;;;;;;0.84;100.00;99851.34;10378424;28;20038;-73
2023/01/20 10:30:50;;;;;;;35.65;24.77;;;;;;;0.67;100.00;99851.31;10376610;28;20045;-74
2023/01/20 10:35:55;;;;;;;38.10;26.65;;;;;;;0.61;100.00;99849.53;10375548;28;20041;-73
2023/01/20 10:41:25;;;;;;;56.13;33.67;;;;;;;0.76;100.00;99846.19;10391104;23;20076;-69
2023/01/20 10:46:45;;;;;;;71.25;36.38;;;;;;;0.75;100.00;99852.19;10377292;28;20044;-70
2023/01/20 10:52:14;;;;;;;35.80;24.80;;;;;;;0.61;100.00;99854.69;10376857;28;20049;-70
2023/01/20 10:57:16;;;;;;;42.85;27.58;;;;;;;0.78;100.00;99859.97;10371761;28;20042;-70
2023/01/20 11:02:24;;;;;;;51.88;32.78;;;;;;;1.18;99.38;99858.41;10360445;28;20384;-70
2023/01/20 11:07:27;;;;;;;37.63;24.73;;;;;;;0.98;99.94;99867.84;10377692;28;20077;-71
2023/01/20 11:12:34;;;;;;;46.17;29.35;;;;;;;0.79;100.00;99877.22;10377614;28;20380;-70
2023/01/20 11:17:37;;;;;;;63.28;32.78;;;;;;;1.01;100.00;99879.03;10358332;28;20426;-69
2023/01/20 11:22:45;;;;;;;42.78;27.10;;;;;;;1.17;97.22;99872.22;10376497;28;20042;-70
2023/01/20 11:27:46;;;;;;;39.70;26.50;;;;;;;1.09;97.63;99881.66;10379151;28;20046;-70
2023/01/20 11:33:15;;;;;;;47.90;28.15;;;;;;;0.70;100.00;99879.75;10375960;28;20445;-70
2023/01/20 11:38:25;;;;;;;40.22;27.80;;;;;;;0.80;100.00;99888.44;10375216;28;20565;-70
2023/01/20 11:43:34;;;;;;;38.60;26.38;;;;;;;0.84;100.00;99901.41;10373345;28;20392;-70
2023/01/20 11:48:36;;;;;;;38.08;25.80;;;;;;;0.79;100.00;99903.09;10379045;28;20050;-70
2023/01/20 11:53:38;;;;;;;41.80;27.25;;;;;;;0.82;100.00;99913.47;10379253;28;20121;-70
2023/01/20 11:58:56;;;;;;;40.42;27.60;;;;;;;0.71;100.00;99917.72;10381872;28;20046;-71
2023/01/20 12:04:29;;;;;;;50.40;28.23;;;;;;;0.61;100.00;99921.09;10381808;28;20121;-70
2023/01/20 12:09:42;;;;;;;44.80;26.85;;;;;;;0.72;100.00;99928.06;10384337;28;20066;-69
2023/01/20 12:15:02;;;;;;;40.28;26.52;;;;;;;0.91;100.00;99926.44;10382083;28;20034;-69
2023/01/20 12:20:12;;;;;;;49.63;27.95;;;;;;;0.89;100.00;99941.13;10364405;28;20053;-71
2023/01/20 12:25:19;;;;;;;49.47;29.33;;;;;;;1.09;100.00;99945.53;10381355;28;20038;-69
2023/01/20 12:30:37;;;;;;;46.95;27.88;;;;;;;0.94;100.00;99948.91;10383508;28;20042;-75
2023/01/20 12:35:57;;;;;;;43.80;29.08;;;;;;;1.05;99.57;99954.13;10381804;28;20072;-75
2023/01/20 12:41:06;;;;;;;48.28;27.33;;;;;;;0.81;100.00;99967.81;10380695;28;20510;-74
2023/01/20 12:46:17;;;;;;;;;;;;;;;0.69;100.00;99961.69;10363055;28;20495;-74
2023/01/20 12:51:40;;;;;;;43.60;30.10;;;;;;;0.72;100.00;99966.88;10366048;28;20346;-73
2023/01/20 12:56:42;;;;;;;54.78;28.80;;;;;;;0.64;100.00;99963.38;10380191;28;20117;-75
2023/01/20 13:02:08;;;;;;;58.92;32.13;;;;;;;0.76;100.00;99975.53;10380000;28;20077;-74
2023/01/20 13:07:32;;;;;;;52.80;30.10;;;;;;;0.68;100.00;99980.66;10385136;28;20488;-74
2023/01/20 13:12:49;;;;;;;48.88;29.38;;;;;;;0.80;100.00;99981.56;10422727;28;20049;-74
2023/01/20 13:18:06;;;;;;;52.75;30.40;;;;;;;0.72;100.00;99982.41;10422822;28;20099;-73
2023/01/20 13:23:13;;;;;;;54.35;29.63;;;;;;;0.83;100.00;99987.66;10422442;28;20463;-74
2023/01/20 13:28:25;;;;;;;51.07;29.70;;;;;;;0.83;100.00;99987.66;10421143;28;20111;-74
2023/01/20 13:33:37;;;;;;;60.97;30.70;;;;;;;0.87;100.00;99991.13;10420229;28;20037;-74
2023/01/20 13:38:39;;;;;;;50.55;29.13;;;;;;;0.65;100.00;100000.44;10422870;28;20491;-74
2023/01/20 13:43:41;;;;;;;56.22;28.58;;;;;;;0.78;100.00;100001.41;10419479;28;20044;-74
2023/01/20 13:49:12;;;;;;;48.00;29.88;;;;;;;0.64;100.00;100009.94;10420057;28;20133;-73
2023/01/20 13:54:31;;;;;;;55.53;30.58;;;;;;;0.74;100.00;100010.88;10402218;28;20044;-74
2023/01/20 13:59:33;;;;;;;65.93;31.98;;;;;;;0.76;100.00;100016.94;10404689;28;20411;-73
2023/01/20 14:04:43;;;;;;;56.95;31.35;;;;;;;0.55;100.00;100009.88;10418834;28;20041;-74
2023/01/20 14:09:53;;;;;;;60.70;31.55;;;;;;;0.44;100.00;100024.41;10417524;28;20121;-73
2023/01/20 14:14:55;;;;;;;43.25;30.60;;;;;;;0.61;100.00;100024.56;10418734;28;20037;-74
2023/01/20 14:19:57;;;;;;;57.72;32.72;;;;;;;0.81;100.00;100032.50;10419436;28;20048;-73
2023/01/20 14:25:00;;;;;;;58.33;33.00;;;;;;;0.66;100.00;100040.97;10419246;28;20033;-73
2023/01/20 14:30:17;;;;;;;66.38;32.63;;;;;;;0.67;100.00;100046.19;10417678;28;20049;-73
2023/01/20 14:35:28;;;;;;;;;;;;;;;0.59;100.00;100047.84;10419284;28;20045;-73
2023/01/20 14:40:35;;;;;;;64.15;32.63;;;;;;;0.61;100.00;100058.19;10417770;28;19928;-73
2023/01/20 14:45:42;;;;;;;62.67;33.00;;;;;;;0.55;100.00;100055.56;10420450;28;20072;-73
2023/01/20 14:50:49;;;;;;;56.13;34.20;;;;;;;0.57;100.00;100066.78;10418443;28;20068;-73
2023/01/20 14:56:08;;;;;;;63.78;33.85;;;;;;;0.41;100.00;100076.97;10400130;28;20042;-74
2023/01/20 15:01:19;;;;;;;69.13;34.67;;;;;;;0.48;100.00;100080.47;10418315;28;20042;-74
2023/01/20 15:06:23;;;;;;;60.00;34.67;;;;;;;0.39;100.00;100093.31;10404725;28;20491;-74
2023/01/20 15:11:27;;;;;;;60.70;33.75;;;;;;;0.53;100.00;100104.66;10399636;28;20052;-74
2023/01/20 15:16:35;;;;;;;63.50;34.25;;;;;;;0.44;100.00;100107.16;10418359;28;20113;-74
2023/01/20 15:21:38;;;;;;;59.03;32.22;;;;;;;0.53;100.00;100119.31;10418081;28;20050;-73
2023/01/20 15:26:40;;;;;;;62.17;32.95;;;;;;;0.29;100.00;100125.09;10428918;28;20092;-74
2023/01/20 15:31:42;;;;;;;69.25;34.53;;;;;;;0.33;100.00;100120.00;10410235;28;20068;-74
2023/01/20 15:36:45;;;;;;;63.88;35.45;;;;;;;0.18;100.00;100132.75;10408446;28;20041;-74
2023/01/20 15:41:52;;;;;;;63.55;35.30;;;;;;;0.17;100.00;100136.16;10426602;28;20419;-70
2023/01/20 15:46:54;;;;;;;79.25;36.20;;;;;;;0.07;100.00;100142.09;10433522;28;20061;-70
2023/01/20 15:51:58;;;;;;;79.00;37.20;;;;;;;0.06;100.00;100145.53;10406797;28;20053;-70
2023/01/20 15:57:00;;;;;;;75.18;39.90;;;;;;;-0.03;100.00;100146.28;10424744;28;20045;-70
2023/01/20 16:02:02;;;;;;;76.93;37.55;;;;;;;0.05;100.00;100147.25;10423389;28;20054;-70
2023/01/20 16:07:04;;;;;;;80.13;38.22;;;;;;;-0.06;100.00;100164.31;10423003;28;20048;-71
2023/01/20 16:12:10;;;;;;;81.45;38.38;;;;;;;-0.07;100.00;100155.69;10425517;28;20084;-71
2023/01/20 16:17:15;;;;;;;76.30;38.97;;;;;;;-0.06;100.00;100166.91;10422734;28;20041;-71
2023/01/20 16:22:16;;;;;;;77.47;38.08;;;;;;;0.02;100.00;100173.03;10422351;28;20064;-70
2023/01/20 16:27:20;;;;;;;74.60;38.17;;;;;;;-0.08;100.00;100181.53;10426634;28;20037;-70
2023/01/20 16:32:22;;;;;;;75.07;38.75;;;;;;;-0.05;100.00;100192.75;10424234;28;20042;-70
2023/01/20 16:42:53;;;;;;;107.35;51.10;;;;;;;-0.06;100.00;100203.06;10399518;28;20060;-75
2023/01/20 16:47:56;;;;;;;95.50;42.38;;;;;;;-0.11;100.00;100215.94;10421154;28;20529;-76
2023/01/20 16:52:58;;;;;;;70.75;39.45;;;;;;;-0.11;100.00;100226.25;10405875;28;20406;-76
2023/01/20 16:58:00;;;;;;;79.80;38.90;;;;;;;-0.12;100.00;100239.19;10405757;28;20053;-76
2023/01/20 17:03:03;;;;;;;73.28;38.45;;;;;;;-0.11;100.00;100243.50;10421920;28;20045;-76
2023/01/20 17:08:05;;;;;;;76.90;37.22;;;;;;;0.10;100.00;100245.53;10421329;28;20061;-76
2023/01/20 17:13:07;;;;;;;82.03;38.53;;;;;;;0.02;100.00;100248.00;10420400;28;20052;-76
2023/01/20 17:18:10;;;;;;;69.18;36.80;;;;;;;-0.09;100.00;100258.19;10420313;28;20049;-75
2023/01/20 17:23:12;;;;;;;78.55;37.05;;;;;;;0.04;100.00;100266.09;10405299;28;20052;-75
2023/01/20 17:28:17;;;;;;;72.95;37.05;;;;;;;0.05;100.00;100268.72;10421948;28;20045;-75
2023/01/20 17:33:18;;;;;;;62.08;32.17;;;;;;;0.05;100.00;100271.31;10417466;28;20495;-74
2023/01/20 17:38:21;;;;;;;58.53;31.52;;;;;;;-0.02;100.00;100274.63;10416985;28;20052;-75
2023/01/20 17:43:23;;;;;;;56.13;31.60;;;;;;;0.02;100.00;100280.72;10416979;28;20050;-75
2023/01/20 17:48:25;;;;;;;61.38;32.28;;;;;;;-0.18;100.00;100282.97;10417206;28;20052;-75
2023/01/20 17:53:27;;;;;;;69.88;31.75;;;;;;;-0.28;100.00;100289.72;10400397;28;20052;-75
2023/01/20 17:58:28;;;;;;;60.60;29.25;;;;;;;-0.17;100.00;100292.50;10417023;28;20053;-74
2023/01/20 18:03:30;;;;;;;53.03;30.00;;;;;;;-0.28;100.00;100297.47;10416962;28;20049;-75
2023/01/20 18:08:33;;;;;;;60.38;33.40;;;;;;;-0.21;100.00;100294.16;10399750;28;20046;-75
2023/01/20 18:13:35;;;;;;;64.40;29.40;;;;;;;-0.30;100.00;100304.34;10417405;28;20048;-75
2023/01/20 18:18:38;;;;;;;67.72;32.08;;;;;;;-0.36;100.00;100311.97;10399858;28;20041;-75
2023/01/20 18:23:41;;;;;;;51.67;27.88;;;;;;;-0.31;100.00;100325.81;10399184;28;20048;-76
2023/01/20 18:28:46;;;;;;;47.33;27.20;;;;;;;-0.32;100.00;100324.09;10416411;28;20060;-75
2023/01/20 18:33:56;;;;;;;34.08;23.65;;;;;;;-0.13;100.00;100321.00;10416113;28;20061;-75
2023/01/20 18:39:03;;;;;;;39.72;23.02;;;;;;;-0.26;100.00;100326.81;10416192;28;20055;-75
2023/01/20 18:44:06;;;;;;;43.90;24.55;;;;;;;-0.24;100.00;100332.84;10416125;28;20041;-75
2023/01/20 18:49:11;;;;;;;40.58;22.73;;;;;;;-0.38;100.00;100327.47;10415659;28;20120;-74
2023/01/20 18:54:23;;;;;;;37.33;22.65;;;;;;;-0.49;100.00;100335.84;10416752;28;20045;-75
2023/01/20 18:59:25;;;;;;;41.90;23.77;;;;;;;-0.49;100.00;100338.44;10404171;28;20050;-76
2023/01/20 19:04:28;;;;;;;35.33;22.27;;;;;;;-0.49;100.00;100341.88;10398308;28;20380;-76
2023/01/20 19:09:30;;;;;;;40.25;23.98;;;;;;;-0.49;100.00;100344.47;10397510;28;20060;-76
2023/01/20 19:14:32;;;;;;;47.63;25.05;;;;;;;-0.48;100.00;100347.94;10416920;28;20052;-76
2023/01/20 19:19:33;;;;;;;43.38;23.30;;;;;;;-0.51;100.00;100347.03;10377719;28;20070;-77
2023/01/20 19:24:38;;;;;;;58.50;24.92;;;;;;;-0.61;100.00;100341.69;10388184;28;20065;-76
2023/01/20 19:29:40;;;;;;;44.80;23.17;;;;;;;-0.48;100.00;100351.41;10388214;28;20073;-77
2023/01/20 19:34:44;;;;;;;33.90;22.75;;;;;;;-0.52;100.00;100347.00;10395053;28;20072;-75
2023/01/20 19:39:47;;;;;;;41.58;23.20;;;;;;;-0.42;100.00;100346.31;10424191;28;20489;-75
2023/01/20 19:44:50;;;;;;;39.40;23.83;;;;;;;-0.32;100.00;100349.94;10409320;28;20048;-75
2023/01/20 19:49:52;;;;;;;38.63;25.48;;;;;;;-0.46;100.00;100356.56;10409692;28;20042;-76
2023/01/20 19:54:54;;;;;;;42.67;25.60;;;;;;;-0.55;100.00;100359.84;10424579;28;20092;-75
2023/01/20 19:59:56;;;;;;;42.28;25.58;;;;;;;-0.57;100.00;100369.31;10407147;28;20080;-76
2023/01/20 20:04:58;;;;;;;35.00;23.67;;;;;;;-0.59;100.00;100377.00;10426135;28;20137;-76
2023/01/20 20:10:00;;;;;;;35.20;21.83;;;;;;;-0.44;100.00;100380.69;10429006;28;20487;-76
2023/01/20 20:15:03;;;;;;;31.65;21.13;;;;;;;-0.54;100.00;100383.13;10414974;28;20077;-77
2023/01/20 20:20:06;;;;;;;29.40;20.13;;;;;;;-0.55;100.00;100396.88;10412750;28;20048;-76
2023/01/20 20:25:10;;;;;;;35.38;22.05;;;;;;;-0.66;100.00;100389.78;10430704;28;20047;-77
2023/01/20 20:30:12;;;;;;;33.58;22.00;;;;;;;-0.48;100.00;100397.88;10431627;28;20045;-76
2023/01/20 20:35:14;;;;;;;39.03;23.70;;;;;;;-0.54;100.00;100403.78;10413103;28;20053;-76
2023/01/20 20:40:17;;;;;;;36.63;22.10;;;;;;;-0.49;100.00;100414.19;10429688;28;20065;-76
2023/01/20 20:45:19;;;;;;;41.67;25.23;;;;;;;-0.52;100.00;100424.47;10430320;28;20042;-76
2023/01/20 20:50:22;;;;;;;56.72;26.95;;;;;;;-0.48;100.00;100431.44;10428993;28;20046;-76
2023/01/20 20:55:28;;;;;;;52.03;25.88;;;;;;;-0.49;100.00;100423.66;10429264;28;20136;-76
2023/01/20 21:00:29;;;;;;;44.35;27.00;;;;;;;-0.53;100.00;100428.78;10428228;28;20099;-75
2023/01/20 21:05:32;;;;;;;52.75;24.85;;;;;;;-0.53;100.00;100433.94;10428387;28;20041;-77
2023/01/20 21:10:34;;;;;;;38.13;23.20;;;;;;;-0.68;100.00;100443.09;10425775;28;20132;-77
2023/01/20 21:15:37;;;;;;;42.22;22.92;;;;;;;-0.65;100.00;100450.91;10425727;28;20084;-76
2023/01/20 21:20:39;;;;;;;31.95;22.13;;;;;;;-0.72;100.00;100459.34;10391378;28;20503;-76
2023/01/20 21:25:42;;;;;;;42.67;24.08;;;;;;;-0.69;100.00;100464.59;10393928;28;20572;-77
2023/01/20 21:30:44;;;;;;;45.97;24.35;;;;;;;-0.75;100.00;100462.75;10410949;28;20046;-77
2023/01/20 21:35:47;;;;;;;42.30;24.95;;;;;;;-0.71;100.00;100463.66;10428812;28;20479;-75
2023/01/20 21:41:01;;;;;;;51.20;26.08;;;;;;;-0.85;100.00;100473.69;10425043;28;20087;-76
2023/01/20 21:46:03;;;;;;;51.20;27.23;;;;;;;-0.83;100.00;100474.63;10424602;28;20042;-75
2023/01/20 21:56:29;;;;;;;62.17;29.85;;;;;;;-0.96;100.00;100472.63;10424874;28;20042;-75
2023/01/20 22:01:31;;;;;;;61.90;29.63;;;;;;;-0.81;100.00;100478.97;10424633;28;20124;-77
2023/01/20 22:06:32;;;;;;;70.15;31.73;;;;;;;-0.78;100.00;100491.06;10424846;28;20403;-75
2023/01/20 22:11:35;;;;;;;67.90;30.55;;;;;;;-0.90;100.00;100490.81;10422838;28;20056;-76
2023/01/20 22:16:36;;;;;;;69.88;30.58;;;;;;;-0.77;100.00;100496.25;10422531;28;20041;-76
2023/01/20 22:21:38;;;;;;;58.95;28.63;;;;;;;-0.81;100.00;100501.31;10420747;28;20406;-75
2023/01/20 22:26:40;;;;;;;64.25;28.20;;;;;;;-0.82;100.00;100502.16;10420326;28;20057;-74
2023/01/20 22:31:43;;;;;;;68.68;29.45;;;;;;;-0.84;100.00;100509.88;10420185;28;20564;-76
2023/01/20 22:36:45;;;;;;;58.03;25.52;;;;;;;-0.92;100.00;100507.97;10403048;28;20039;-76
2023/01/20 22:41:47;;;;;;;48.70;25.48;;;;;;;-0.99;100.00;100509.53;10410745;22;20053;-72
2023/01/20 22:46:49;;;;;;;51.65;25.48;;;;;;;-0.84;100.00;100507.31;10377780;28;20060;-72
2023/01/20 22:51:54;;;;;;;54.28;26.80;;;;;;;-1.00;100.00;100509.50;10374969;28;20491;-72
2023/01/20 22:56:55;;;;;;;51.60;24.92;;;;;;;-1.06;100.00;100499.94;10375438;28;20041;-72
2023/01/20 23:01:57;;;;;;;46.67;23.50;;;;;;;-0.93;100.00;100508.78;10375922;28;20124;-71
2023/01/20 23:06:59;;;;;;;56.88;25.65;;;;;;;-0.82;100.00;100521.09;10379149;28;20042;-72
2023/01/20 23:12:01;;;;;;;39.97;24.25;;;;;;;-0.92;100.00;100508.84;10374172;28;20042;-72
2023/01/20 23:17:02;;;;;;;40.70;20.55;;;;;;;-0.94;100.00;100505.34;10376820;28;20042;-72
2023/01/20 23:22:04;;;;;;;33.58;18.27;;;;;;;-0.82;100.00;100515.94;10375440;28;20038;-72
2023/01/20 23:27:05;;;;;;;33.00;19.15;;;;;;;-0.94;100.00;100523.41;10376320;28;20101;-71